Aérodrome :
LOGIN :

S'inscrire | Disclaimer

   EN    FR    IT 

 










Légende :    VFR   VFR Marginal   IFR   IFR Intensif   IFR Très Intensif
Visi : 
Plafond : 
>= 8 km
>= 3000ft
5 à 8 km
1000 à 3000 ft
1500m à 5 km
500 à 1000 ft
800 à 1500m
200 à 500 ft
< 800m
< 200 ft
Symboles :   Orages  Brouillard  Fortes neiges  Fortes précipitations  Vent > 20 kt
SIGMETs :   Divers  Orages  Givrage  Turbulence  Onde Orograph.  Cendres Volcan.







- Altitude de l'aérodrome : 433 ft
- Code IATA : CCF
- Voir les cartes d'approche


LFMK - Carcassonne

DERNIER METAR :
  • 170930Z AUTO 26004KT 220V310 9999 BKN008 OVC090 16/15 Q1018 TEMPO SHRA BKN009 BKN020TCU

METARs EXPIRÉS :
  • 170900Z AUTO 29006KT 270V330 9999 BKN009 OVC050 16/15 Q1018 TEMPO SHRA BKN013 BKN020TCU
  • 170830Z AUTO 26004KT 230V290 9999 FEW004 BKN044 OVC086 16/15 Q1018 TEMPO SHRA BKN013 BKN020TCU
  • 170800Z AUTO 30004KT 260V330 8000 BKN009 BKN025 BKN047 15/15 Q1018 BECMG 08010KT SCT005 SCT030
  • 170730Z AUTO 32003KT 5000 BR BKN004 BKN045 BKN058 15/14 Q1018 BECMG 08010KT SCT005 SCT030
  • 170700Z AUTO VRB01KT 5000 BR BKN046 OVC060 15/14 Q1018 NOSIG

TAF AMD TAF LFMK
Valide du 17 à 09h jusqu'au 18 à 09h UTC


170911Z 1709/1809 VRB02KT CAVOK
TEMPO 1709/1715 28012KT SHRA BKN009 BKN020TCU
TEMPO 1723/1809 1200 SHRA BR BKN006 BKN020TCU
PROB30
TEMPO 1806/1809 VRB15G25KT TSRA BKN010CB
Pas de NOTAMs connus pour ce terrain.



MET'MAP, la Météo Aéronautique d'un coup d'oeil ! - Copyright ORBIFLY Décembre 2007 - Disclaimer

ORBIFLY MET'MAP TEAM :

Programmation & Développement : Alexandra Zaïnal
Conception & Développement : Baudouin d'Aumeries
Co-Programmation & Développement : Marc-Olivier Méhu
Soutien technique & logistique : Manuel Goepfert

Contact : metmap@orbifly.com




SOURCES & CREDITS :

   NOAA